Time;durP1;ratioP1;P1;durP2;ratioP2;P2;SDS_P1;SDS_P2;PMS_P1;PMS_P2;Temp;Humidity;BMP_temperature;BMP_pressure;BME280_temperature;BME280_humidity;BME280_pressure;Samples;Min_cycle;Max_cycle;Signal;HPM_P1;HPM_P2
2022/12/31 00:01:20;;;;;;;2.00;1.80;;;;;;;7.91;100.00;95972.78;5082570;28;20571;-79
2022/12/31 00:03:47;;;;;;;2.50;2.30;;;;;;;7.77;100.00;95939.88;5095858;28;20444;-77
2022/12/31 00:06:29;;;;;;;3.23;1.90;;;;;;;7.92;100.00;95957.78;5081538;28;20944;-77
2022/12/31 00:08:58;;;;;;;2.50;1.70;;;;;;;7.87;100.00;95950.03;5093911;28;20432;-77
2022/12/31 00:11:26;;;;;;;2.00;1.90;;;;;;;8.04;100.00;95973.66;5074437;28;20433;-78
2022/12/31 00:13:53;;;;;;;2.13;1.93;;;;;;;8.09;100.00;95970.06;5078742;28;20869;-82
2022/12/31 00:16:28;;;;;;;5.60;4.00;;;;;;;7.87;100.00;95963.19;5096060;28;20526;-78
2022/12/31 00:18:58;;;;;;;1.40;1.30;;;;;;;8.16;100.00;95983.50;5094747;28;20428;-81
2022/12/31 00:21:26;;;;;;;2.77;1.63;;;;;;;8.08;100.00;95984.31;5084413;28;20523;-82
2022/12/31 00:23:53;;;;;;;2.97;2.70;;;;;;;7.95;100.00;95946.59;5101724;28;20460;-78
2022/12/31 00:26:23;;;;;;;4.80;3.53;;;;;;;7.91;100.00;95950.97;5108992;28;20459;-81
2022/12/31 00:28:52;;;;;;;2.07;1.97;;;;;;;8.14;100.00;95990.94;5097577;28;20410;-82
2022/12/31 00:31:21;;;;;;;1.70;1.60;;;;;;;8.16;100.00;96000.06;5097154;28;20401;-79
2022/12/31 00:33:49;;;;;;;2.00;1.90;;;;;;;8.07;100.00;95978.28;5080561;28;20460;-81
2022/12/31 00:36:18;;;;;;;2.67;2.13;;;;;;;8.21;100.00;96001.75;5069497;28;20439;-81
2022/12/31 00:38:47;;;;;;;5.63;1.60;;;;;;;8.23;100.00;95992.44;5110205;28;20486;-77
2022/12/31 00:41:15;;;;;;;2.30;2.10;;;;;;;8.05;100.00;95980.47;5096679;28;20436;-81
2022/12/31 00:43:42;;;;;;;6.03;2.30;;;;;;;8.12;100.00;96014.94;5101821;28;20427;-78
2022/12/31 00:46:12;;;;;;;1.50;1.40;;;;;;;7.95;100.00;95989.47;5105025;28;20397;-81
2022/12/31 00:48:39;;;;;;;1.70;1.60;;;;;;;8.12;100.00;96014.94;5083254;28;20470;-83
2022/12/31 00:51:09;;;;;;;1.90;1.80;;;;;;;7.99;100.00;96015.94;5079712;28;20429;-75
2022/12/31 00:53:36;;;;;;;2.20;1.33;;;;;;;8.06;100.00;96018.09;5068338;28;21020;-75
2022/12/31 00:56:10;;;;;;;1.30;1.20;;;;;;;8.14;100.00;96030.44;5068346;28;20932;-76
2022/12/31 00:58:38;;;;;;;4.17;1.60;;;;;;;7.87;100.00;96000.03;5075833;28;20423;-76
2022/12/31 01:01:22;;;;;;;3.57;2.73;;;;;;;7.97;100.00;96015.50;5074746;28;20448;-76
2022/12/31 01:03:53;;;;;;;6.47;3.73;;;;;;;7.85;100.00;96020.66;5072973;28;20456;-76
2022/12/31 01:06:24;;;;;;;5.63;5.10;;;;;;;7.39;100.00;96043.22;5057358;28;20497;-76
2022/12/31 01:08:52;;;;;;;6.60;5.90;;;;;;;7.04;100.00;96031.97;5055368;28;20448;-76
2022/12/31 01:11:22;;;;;;;5.47;5.00;;;;;;;6.70;100.00;95983.59;5073460;28;20873;-76
2022/12/31 01:13:51;;;;;;;14.43;7.63;;;;;;;6.85;100.00;96003.38;5075199;28;20444;-76
2022/12/31 01:16:20;;;;;;;21.07;10.40;;;;;;;6.98;100.00;96039.25;5075084;28;20436;-76
2022/12/31 01:18:47;;;;;;;22.30;11.77;;;;;;;6.91;100.00;96038.91;5074883;28;20465;-76
2022/12/31 01:21:15;;;;;;;18.10;11.60;;;;;;;6.90;100.00;96024.22;5059065;28;20432;-76
2022/12/31 01:23:42;;;;;;;11.43;9.27;;;;;;;6.91;100.00;96046.03;5058690;28;20467;-76
2022/12/31 01:26:11;;;;;;;19.03;10.23;;;;;;;6.90;100.00;96039.22;5074411;28;20519;-76
2022/12/31 01:28:38;;;;;;;14.07;9.40;;;;;;;6.87;100.00;96034.59;5073765;28;20453;-76
2022/12/31 01:31:08;;;;;;;16.03;11.20;;;;;;;6.80;100.00;96017.41;5073998;28;20511;-76
2022/12/31 01:33:35;;;;;;;14.13;9.53;;;;;;;6.78;100.00;96011.72;5074032;28;20475;-76
2022/12/31 01:36:10;;;;;;;11.80;7.87;;;;;;;6.95;100.00;96053.00;5073594;28;20498;-77
2022/12/31 01:38:37;;;;;;;10.70;8.53;;;;;;;6.90;100.00;96055.00;5087202;28;21077;-76
2022/12/31 01:41:04;;;;;;;10.03;7.67;;;;;;;6.65;100.00;96017.88;5073710;28;20787;-76
2022/12/31 01:43:46;;;;;;;7.27;6.40;;;;;;;6.87;100.00;96053.00;5056371;28;20935;-76
2022/12/31 01:46:38;;;;;;;8.57;7.33;;;;;;;6.87;100.00;96048.50;5073581;28;20429;-76
2022/12/31 01:49:25;;;;;;;8.00;5.87;;;;;;;6.71;100.00;96021.91;5062016;28;20432;-76
2022/12/31 01:52:01;;;;;;;7.00;6.20;;;;;;;6.68;100.00;96012.03;5072987;28;20432;-76
2022/12/31 01:54:31;;;;;;;6.10;5.50;;;;;;;6.70;100.00;96014.34;5072890;28;20870;-76
2022/12/31 01:56:58;;;;;;;6.27;5.40;;;;;;;6.73;100.00;96013.72;5056613;28;20436;-76
2022/12/31 01:59:27;;;;;;;5.20;4.77;;;;;;;6.88;100.00;96042.16;5074276;28;20424;-76
2022/12/31 02:01:54;;;;;;;7.23;5.27;;;;;;;6.84;100.00;96027.34;5073125;28;20506;-76
2022/12/31 02:04:23;;;;;;;6.00;5.27;;;;;;;6.91;100.00;96028.41;5073802;28;20551;-76
2022/12/31 02:07:00;;;;;;;19.87;10.70;;;;;;;6.76;100.00;96018.34;5072685;28;20502;-76
2022/12/31 02:09:28;;;;;;;16.10;10.20;;;;;;;7.01;100.00;96030.72;5073061;28;20938;-76
2022/12/31 02:11:55;;;;;;;11.97;8.43;;;;;;;7.03;100.00;96040.94;5072716;28;21090;-76
2022/12/31 02:14:37;;;;;;;12.70;9.80;;;;;;;6.91;100.00;96036.28;5056000;28;20456;-76
2022/12/31 02:17:42;;;;;;;9.90;6.50;;;;;;;7.01;100.00;96049.13;5072405;28;20535;-76
2022/12/31 02:20:15;;;;;;;17.27;9.40;;;;;;;7.00;100.00;96044.19;5018572;28;20872;-76
2022/12/31 02:22:44;;;;;;;19.27;11.53;;;;;;;6.96;100.00;96049.28;5055541;28;20512;-76
2022/12/31 02:25:41;;;;;;;17.37;10.30;;;;;;;6.88;100.00;96042.16;5072127;28;20809;-76
2022/12/31 02:28:16;;;;;;;9.37;6.80;;;;;;;6.88;100.00;96047.41;5042132;28;20479;-76
2022/12/31 02:30:49;;;;;;;8.90;6.40;;;;;;;6.51;100.00;96010.16;5071865;28;20477;-76
2022/12/31 02:33:24;;;;;;;6.40;5.53;;;;;;;6.84;100.00;96048.34;5051937;28;20823;-76
2022/12/31 02:35:56;;;;;;;6.93;6.20;;;;;;;6.88;100.00;96051.91;5058488;28;20423;-76
2022/12/31 02:38:31;;;;;;;7.30;6.57;;;;;;;6.63;100.00;96011.41;5085285;28;20518;-76
2022/12/31 02:40:59;;;;;;;6.23;5.50;;;;;;;6.89;100.00;96042.94;5072909;28;20442;-76
2022/12/31 02:43:26;;;;;;;8.47;6.53;;;;;;;6.92;100.00;96027.31;5073709;28;20460;-76
2022/12/31 02:46:18;;;;;;;5.90;5.17;;;;;;;6.90;100.00;96024.22;5083442;28;20515;-76
2022/12/31 02:48:51;;;;;;;10.70;6.17;;;;;;;6.91;100.00;96028.41;5071655;28;20428;-76
2022/12/31 02:51:33;;;;;;;8.67;6.07;;;;;;;7.02;100.00;96055.94;5071640;28;20483;-76
2022/12/31 02:54:22;;;;;;;9.40;7.20;;;;;;;7.04;100.00;96060.88;5071191;28;20448;-76
2022/12/31 02:57:07;;;;;;;7.63;5.80;;;;;;;7.09;100.00;96052.84;5071517;28;20440;-76
2022/12/31 03:02:40;;;;;;;8.73;6.37;;;;;;;7.13;100.00;96043.25;5072749;28;20874;-76
2022/12/31 03:05:09;;;;;;;4.37;3.03;;;;;;;7.26;100.00;96034.41;5060176;28;20453;-76
2022/12/31 03:07:39;;;;;;;3.63;3.33;;;;;;;7.50;100.00;96048.94;5066891;28;20420;-76
2022/12/31 03:10:06;;;;;;;1.77;1.67;;;;;;;7.69;100.00;96046.72;5054941;28;20476;-76
2022/12/31 03:12:46;;;;;;;1.80;1.70;;;;;;;7.92;100.00;96042.78;5072816;28;20459;-76
2022/12/31 03:15:24;;;;;;;3.73;1.90;;;;;;;8.06;100.00;96053.09;5072176;28;20785;-76
2022/12/31 03:17:58;;;;;;;1.53;1.43;;;;;;;8.10;100.00;96032.16;5070960;28;20440;-76
2022/12/31 03:23:24;;;;;;;5.93;1.60;;;;;;;8.43;100.00;96053.41;5071781;28;20596;-76
2022/12/31 03:25:53;;;;;;;2.43;2.00;;;;;;;8.51;100.00;96057.84;5070876;28;20452;-76
2022/12/31 03:28:23;;;;;;;1.47;1.37;;;;;;;8.50;100.00;96061.56;5070662;28;20442;-76
2022/12/31 03:30:53;;;;;;;2.33;1.50;;;;;;;8.55;100.00;96064.03;5053893;28;20440;-76
2022/12/31 03:33:21;;;;;;;1.87;1.30;;;;;;;8.56;100.00;96050.53;5053811;28;20492;-76
2022/12/31 03:35:48;;;;;;;1.30;1.20;;;;;;;8.73;100.00;96070.75;5071216;28;20451;-76
2022/12/31 03:38:16;;;;;;;1.90;1.80;;;;;;;8.81;100.00;96067.28;5083873;28;20436;-75
2022/12/31 03:40:46;;;;;;;1.20;1.10;;;;;;;8.83;100.00;96059.81;5070311;28;20528;-77
2022/12/31 03:43:18;;;;;;;1.10;1.00;;;;;;;8.64;100.00;96034.97;5072099;28;20827;-76
2022/12/31 03:45:52;;;;;;;1.70;1.30;;;;;;;8.92;100.00;96077.44;5065466;28;20494;-76
2022/12/31 03:48:21;;;;;;;1.57;1.47;;;;;;;9.01;100.00;96091.34;5071542;28;20432;-76
2022/12/31 03:50:49;;;;;;;1.93;1.83;;;;;;;9.02;100.00;96083.09;5053763;28;20448;-76
2022/12/31 03:53:16;;;;;;;3.77;3.47;;;;;;;8.80;100.00;96049.91;5071710;28;20534;-76
2022/12/31 03:55:43;;;;;;;2.40;1.27;;;;;;;8.94;100.00;96062.06;5070106;28;20440;-76
2022/12/31 03:58:10;;;;;;;3.63;1.27;;;;;;;9.04;100.00;96083.53;5070078;28;20512;-76
2022/12/31 04:00:37;;;;;;;4.20;1.20;;;;;;;8.99;100.00;96081.13;5070031;28;20448;-76
2022/12/31 04:03:04;;;;;;;1.43;0.90;;;;;;;9.22;100.00;96101.91;5053821;28;20521;-76
2022/12/31 04:05:32;;;;;;;2.40;0.93;;;;;;;9.15;100.00;96081.28;5053482;28;20857;-76
2022/12/31 04:07:59;;;;;;;1.20;1.03;;;;;;;9.12;100.00;96072.16;5070069;28;20439;-76
2022/12/31 04:10:25;;;;;;;1.00;0.90;;;;;;;9.26;100.00;96071.13;5069981;28;20483;-76
2022/12/31 04:12:52;;;;;;;1.03;0.90;;;;;;;9.43;100.00;96092.09;5070033;28;20987;-76
2022/12/31 04:15:20;;;;;;;1.30;0.90;;;;;;;9.58;100.00;96088.06;5070175;28;20923;-76
2022/12/31 04:17:47;;;;;;;1.00;0.90;;;;;;;9.50;100.00;96073.09;5069885;28;20428;-76
2022/12/31 04:20:14;;;;;;;0.70;0.60;;;;;;;9.40;100.00;96051.28;5070484;28;20809;-76
2022/12/31 04:22:41;;;;;;;1.00;0.80;;;;;;;9.78;100.00;96097.81;5069911;28;20529;-76
2022/12/31 04:25:10;;;;;;;1.00;0.70;;;;;;;9.65;100.00;96077.75;5070407;28;20452;-75
2022/12/31 04:27:39;;;;;;;1.37;0.90;;;;;;;9.75;100.00;96093.19;5070353;28;20814;-76
2022/12/31 04:30:08;;;;;;;1.00;0.90;;;;;;;9.88;100.00;96099.25;5053829;28;20435;-76
2022/12/31 04:32:35;;;;;;;1.67;1.40;;;;;;;9.90;100.00;96116.34;5070460;28;20439;-75
2022/12/31 04:35:02;;;;;;;1.07;0.80;;;;;;;9.77;100.00;96102.31;5049846;28;20487;-76
2022/12/31 04:37:28;;;;;;;0.87;0.87;;;;;;;9.81;100.00;96113.00;5076576;28;20430;-76
2022/12/31 04:39:55;;;;;;;1.20;0.93;;;;;;;9.77;100.00;96118.16;5076050;28;20440;-76
2022/12/31 04:42:30;;;;;;;1.10;0.87;;;;;;;9.51;100.00;96088.59;5081596;28;20452;-78
2022/12/31 04:44:57;;;;;;;1.53;0.90;;;;;;;9.72;100.00;96123.63;5083214;28;20912;-75
2022/12/31 04:47:24;;;;;;;1.60;1.10;;;;;;;9.12;100.00;96045.03;5065048;28;20432;-76
2022/12/31 04:49:50;;;;;;;1.23;1.10;;;;;;;9.45;100.00;96108.34;5066894;28;20523;-76
2022/12/31 04:52:17;;;;;;;3.80;1.20;;;;;;;9.32;100.00;96089.06;5062561;28;20868;-76
2022/12/31 04:54:44;;;;;;;0.93;0.87;;;;;;;9.45;100.00;96111.75;5043726;28;20830;-76
2022/12/31 04:57:13;;;;;;;1.90;1.20;;;;;;;9.45;100.00;96124.19;5065507;28;20425;-76
2022/12/31 04:59:40;;;;;;;0.80;0.80;;;;;;;9.31;100.00;96116.53;5056725;28;20436;-76
2022/12/31 05:02:07;;;;;;;1.13;1.03;;;;;;;9.25;100.00;96115.19;5046862;28;20967;-77
2022/12/31 05:04:34;;;;;;;1.23;1.13;;;;;;;9.43;100.00;96132.44;5050064;28;20477;-76
2022/12/31 05:07:00;;;;;;;1.57;1.47;;;;;;;9.43;100.00;96142.22;5063532;28;20958;-77
2022/12/31 05:09:27;;;;;;;1.10;1.00;;;;;;;9.07;100.00;96093.44;5061386;28;20530;-76
2022/12/31 05:11:54;;;;;;;1.07;0.97;;;;;;;9.29;100.00;96134.56;5055952;28;20449;-76
2022/12/31 05:14:21;;;;;;;1.00;1.00;;;;;;;9.22;100.00;96144.88;5070328;28;20510;-76
2022/12/31 05:16:47;;;;;;;2.10;0.90;;;;;;;8.99;100.00;96114.63;5056632;28;20439;-75
2022/12/31 05:19:14;;;;;;;1.80;1.70;;;;;;;9.11;100.00;96133.16;5076452;28;20424;-76
2022/12/31 05:21:41;;;;;;;1.07;0.93;;;;;;;9.14;100.00;96156.25;5063204;28;20963;-76
2022/12/31 05:24:08;;;;;;;0.80;0.80;;;;;;;9.04;100.00;96136.28;5049727;28;20493;-76
2022/12/31 05:26:34;;;;;;;2.00;1.90;;;;;;;9.12;100.00;96151.28;5064610;28;20432;-76
2022/12/31 05:29:01;;;;;;;1.67;1.10;;;;;;;8.96;100.00;96113.41;5056217;28;20531;-76
2022/12/31 05:31:28;;;;;;;1.33;1.23;;;;;;;9.04;100.00;96132.88;5074233;28;20519;-76
2022/12/31 05:33:54;;;;;;;2.50;1.57;;;;;;;8.93;100.00;96121.16;5072579;28;20551;-78
2022/12/31 05:36:21;;;;;;;1.30;1.20;;;;;;;9.15;100.00;96155.91;5062251;28;20425;-75
2022/12/31 05:38:48;;;;;;;1.73;1.20;;;;;;;9.16;100.00;96161.97;5072668;28;20427;-75
2022/12/31 05:41:15;;;;;;;2.90;0.97;;;;;;;8.96;100.00;96131.84;5070266;28;20529;-75
2022/12/31 05:43:41;;;;;;;2.30;0.90;;;;;;;8.95;100.00;96142.69;5076497;28;20833;-75
2022/12/31 05:46:11;;;;;;;1.63;1.20;;;;;;;9.01;100.00;96144.84;5081132;28;20896;-76
2022/12/31 05:48:37;;;;;;;3.03;1.20;;;;;;;8.95;100.00;96148.78;5067423;28;20436;-76
2022/12/31 05:51:04;;;;;;;1.00;0.90;;;;;;;8.88;100.00;96130.03;5047555;28;20433;-76
2022/12/31 05:53:33;;;;;;;1.87;1.10;;;;;;;8.93;100.00;96147.53;5042136;28;20494;-76
2022/12/31 05:55:59;;;;;;;1.90;1.03;;;;;;;9.17;100.00;96180.09;5080580;28;20479;-76
2022/12/31 05:58:26;;;;;;;1.03;0.90;;;;;;;9.14;100.00;96185.25;5066655;28;20995;-76
2022/12/31 06:00:53;;;;;;;1.30;1.20;;;;;;;8.99;100.00;96157.59;5064326;28;20424;-76
2022/12/31 06:03:20;;;;;;;1.90;1.10;;;;;;;9.05;100.00;96176.63;5042072;28;20478;-76
2022/12/31 06:05:47;;;;;;;1.63;0.80;;;;;;;9.04;100.00;96169.78;5059899;28;20441;-76
2022/12/31 06:08:13;;;;;;;1.00;0.90;;;;;;;9.04;100.00;96167.94;5071039;28;20531;-76
2022/12/31 06:10:40;;;;;;;1.97;1.87;;;;;;;9.22;100.00;96205.53;5059750;28;20525;-76
2022/12/31 06:13:07;;;;;;;3.00;2.80;;;;;;;9.21;100.00;96193.41;5065391;28;20449;-76
2022/12/31 06:15:38;;;;;;;3.20;3.00;;;;;;;9.27;100.00;96201.94;5064691;28;20951;-76
2022/12/31 06:18:06;;;;;;;1.53;1.20;;;;;;;9.28;100.00;96190.28;5072035;28;20529;-76
2022/12/31 06:20:35;;;;;;;1.60;1.50;;;;;;;9.30;100.00;96199.41;5072062;28;20531;-77
2022/12/31 06:23:02;;;;;;;3.17;1.60;;;;;;;9.30;100.00;96198.66;5071985;28;20887;-75
2022/12/31 06:25:29;;;;;;;1.17;1.07;;;;;;;9.15;100.00;96181.53;5071758;28;20436;-76
2022/12/31 06:27:55;;;;;;;2.23;1.70;;;;;;;9.08;100.00;96171.50;5066149;28;20787;-76
2022/12/31 06:30:22;;;;;;;1.40;1.30;;;;;;;9.21;100.00;96190.78;5065189;28;20463;-76
2022/12/31 06:32:49;;;;;;;1.27;1.17;;;;;;;9.32;100.00;96205.16;5051633;28;20483;-76
2022/12/31 06:35:17;;;;;;;2.80;1.30;;;;;;;9.23;100.00;96195.75;5064921;28;20436;-76
2022/12/31 06:37:43;;;;;;;1.73;1.30;;;;;;;9.31;100.00;96210.75;5069907;28;20461;-75
2022/12/31 06:40:10;;;;;;;1.17;1.07;;;;;;;9.07;100.00;96175.19;5076953;28;20439;-76
2022/12/31 06:42:37;;;;;;;2.30;1.10;;;;;;;9.30;100.00;96217.88;5065587;28;20870;-76
2022/12/31 06:45:04;;;;;;;0.90;0.90;;;;;;;9.07;100.00;96192.88;5086106;28;20447;-76
2022/12/31 06:47:31;;;;;;;1.30;1.20;;;;;;;9.27;100.00;96231.72;5081862;28;20427;-76
2022/12/31 06:49:57;;;;;;;1.00;0.90;;;;;;;9.15;100.00;96208.66;5054740;28;20440;-77
2022/12/31 06:52:24;;;;;;;1.33;1.13;;;;;;;9.37;100.00;96235.88;5071287;28;20444;-76
2022/12/31 06:54:51;;;;;;;1.30;0.97;;;;;;;9.17;100.00;96195.94;5071034;28;20478;-75
2022/12/31 06:57:18;;;;;;;2.00;1.43;;;;;;;9.32;100.00;96205.16;5071148;28;20476;-76
2022/12/31 06:59:45;;;;;;;1.53;1.27;;;;;;;9.30;100.00;96207.34;5058302;28;20854;-76
2022/12/31 07:02:29;;;;;;;1.57;1.47;;;;;;;9.31;100.00;96208.09;5081317;28;20956;-76
2022/12/31 07:05:12;;;;;;;1.63;1.17;;;;;;;9.31;100.00;96216.78;5070896;28;20537;-76
2022/12/31 07:08:04;;;;;;;1.20;1.10;;;;;;;9.27;100.00;96231.72;5069945;28;20507;-75
2022/12/31 07:10:58;;;;;;;1.67;1.57;;;;;;;9.30;100.00;96236.34;5061986;28;20427;-76
2022/12/31 07:13:44;;;;;;;1.47;1.20;;;;;;;9.37;100.00;96241.16;5059887;28;20447;-76
2022/12/31 07:16:16;;;;;;;1.17;1.07;;;;;;;9.33;100.00;96242.84;5070718;28;20471;-76
2022/12/31 07:19:06;;;;;;;1.20;1.10;;;;;;;9.31;100.00;96245.03;5070778;28;20494;-76
2022/12/31 07:21:36;;;;;;;1.63;1.20;;;;;;;9.10;100.00;96211.50;5050374;28;20452;-78
2022/12/31 07:24:08;;;;;;;2.50;1.30;;;;;;;9.00;100.00;96196.03;5066659;28;20476;-75
2022/12/31 07:26:53;;;;;;;1.20;1.10;;;;;;;9.38;100.00;96247.97;5060304;28;20422;-76
2022/12/31 07:29:31;;;;;;;1.70;1.60;;;;;;;9.34;100.00;96241.75;5057268;28;20493;-75
2022/12/31 07:32:17;;;;;;;2.70;2.43;;;;;;;9.39;100.00;96245.00;5052549;28;20518;-76
2022/12/31 07:34:46;;;;;;;2.27;1.90;;;;;;;9.43;100.00;96255.69;5061406;28;20534;-76
2022/12/31 07:37:23;;;;;;;2.00;1.10;;;;;;;9.36;100.00;96243.00;5063392;28;20423;-76
2022/12/31 07:40:28;;;;;;;1.20;1.10;;;;;;;9.44;100.00;96252.72;5057528;28;20448;-76
2022/12/31 07:43:22;;;;;;;1.50;1.40;;;;;;;9.51;100.00;96270.69;5061574;28;20434;-77
2022/12/31 07:46:05;;;;;;;1.13;1.03;;;;;;;9.36;100.00;96242.25;5058798;28;21032;-76
2022/12/31 07:48:35;;;;;;;1.50;1.20;;;;;;;9.29;100.00;96237.44;5066139;28;20862;-78
2022/12/31 07:51:04;;;;;;;1.00;0.90;;;;;;;9.42;100.00;96248.84;5061894;28;20420;-75
2022/12/31 07:53:31;;;;;;;2.87;1.90;;;;;;;9.24;100.00;96227.09;5085335;28;20514;-76
2022/12/31 07:56:04;;;;;;;3.33;3.03;;;;;;;9.51;100.00;96281.25;5070165;28;20436;-77
2022/12/31 07:58:39;;;;;;;7.47;3.40;;;;;;;9.53;100.00;96296.78;5057889;28;20444;-77
2022/12/31 08:01:15;;;;;;;2.60;2.00;;;;;;;9.45;100.00;96272.75;5056464;28;20499;-76
2022/12/31 08:03:56;;;;;;;1.77;1.60;;;;;;;9.32;100.00;96263.19;5069910;28;20467;-76
2022/12/31 08:06:55;;;;;;;3.83;3.07;;;;;;;9.27;100.00;96260.75;5067621;28;20459;-77
2022/12/31 08:09:28;;;;;;;2.00;1.83;;;;;;;9.55;100.00;96297.22;5065280;28;20770;-76
2022/12/31 08:12:00;;;;;;;1.50;1.40;;;;;;;9.51;100.00;96285.75;5069959;28;20547;-76
2022/12/31 08:14:28;;;;;;;6.80;1.47;;;;;;;9.47;100.00;96288.25;5066422;28;20445;-76
2022/12/31 08:16:56;;;;;;;1.33;1.23;;;;;;;9.57;100.00;96298.44;5060419;28;20440;-76
2022/12/31 08:19:31;;;;;;;3.43;1.30;;;;;;;9.30;100.00;96260.09;5039861;28;20800;-76
2022/12/31 08:22:17;;;;;;;2.87;1.13;;;;;;;9.60;100.00;96297.78;5070973;28;20527;-75
2022/12/31 08:25:02;;;;;;;1.20;0.97;;;;;;;9.54;100.00;96293.03;5057521;28;20896;-76
2022/12/31 08:27:39;;;;;;;1.20;1.10;;;;;;;9.72;100.00;96328.78;5039697;28;20534;-76
2022/12/31 08:30:13;;;;;;;1.50;1.40;;;;;;;9.59;100.00;96298.88;5069737;28;20436;-75
2022/12/31 08:33:02;;;;;;;1.20;1.10;;;;;;;9.75;100.00;96322.88;5056407;28;20781;-76
2022/12/31 08:36:06;;;;;;;7.50;1.30;;;;;;;9.73;100.00;96327.69;5071171;28;20416;-76
2022/12/31 08:38:39;;;;;;;4.10;1.37;;;;;;;9.81;100.00;96324.22;5057199;28;20432;-76
2022/12/31 08:41:19;;;;;;;1.50;1.40;;;;;;;9.81;100.00;96331.38;5061145;28;20421;-77
2022/12/31 08:44:25;;;;;;;2.57;1.87;;;;;;;9.85;100.00;96342.84;5073197;28;20834;-76
2022/12/31 08:47:16;;;;;;;1.87;1.20;;;;;;;9.47;100.00;96283.75;5067181;28;20536;-76
2022/12/31 08:49:43;;;;;;;2.80;1.20;;;;;;;9.73;100.00;96317.91;5063999;28;20994;-76
2022/12/31 08:52:18;;;;;;;1.40;1.00;;;;;;;9.89;100.00;96349.81;5052966;28;20527;-76
2022/12/31 08:54:45;;;;;;;1.20;1.10;;;;;;;9.46;100.00;96291.97;5069460;28;20447;-76
2022/12/31 08:57:23;;;;;;;1.20;1.07;;;;;;;10.05;100.00;96352.66;5052942;28;20440;-76
2022/12/31 09:00:10;;;;;;;1.30;1.20;;;;;;;10.08;100.00;96352.78;5052962;28;20477;-76
2022/12/31 09:03:21;;;;;;;2.10;1.90;;;;;;;10.18;100.00;96354.28;5069184;28;20432;-76
2022/12/31 09:05:51;;;;;;;1.30;1.10;;;;;;;10.18;100.00;96359.56;5062951;28;20501;-76
2022/12/31 09:08:53;;;;;;;1.30;1.20;;;;;;;10.25;100.00;96348.50;5069577;28;20424;-76
2022/12/31 09:11:41;;;;;;;1.57;1.20;;;;;;;10.38;100.00;96354.63;5070771;28;20412;-75
2022/12/31 09:14:33;;;;;;;1.13;1.00;;;;;;;10.47;100.00;96352.69;5069383;28;20474;-76
2022/12/31 09:17:09;;;;;;;3.70;1.70;;;;;;;10.52;100.00;96352.47;5040853;28;20842;-76
2022/12/31 09:19:36;;;;;;;2.93;1.37;;;;;;;10.55;100.00;96360.53;5053123;28;20440;-76
2022/12/31 09:22:04;;;;;;;1.17;1.07;;;;;;;10.36;100.00;96317.94;5070091;28;20811;-76
2022/12/31 09:24:31;;;;;;;0.97;0.90;;;;;;;10.70;100.00;96359.16;5056552;28;20527;-76
2022/12/31 09:27:23;;;;;;;1.43;1.33;;;;;;;10.89;100.00;96361.31;5068687;28;20439;-76
2022/12/31 09:30:02;;;;;;;2.87;1.17;;;;;;;11.04;100.00;96368.59;5061033;28;20472;-76
2022/12/31 09:32:56;;;;;;;2.60;1.00;;;;;;;11.01;100.00;96348.09;5073478;28;20432;-76
2022/12/31 09:35:27;;;;;;;1.50;1.40;;;;;;;11.30;100.00;96375.50;5059145;28;20435;-76
2022/12/31 09:38:17;;;;;;;1.73;1.63;;;;;;;11.37;100.00;96373.09;5083828;28;20432;-76
2022/12/31 09:41:05;;;;;;;2.23;2.03;;;;;;;11.44;100.00;96375.94;5054863;28;20523;-76
2022/12/31 09:44:11;;;;;;;1.83;1.63;;;;;;;11.53;100.00;96377.41;5075694;28;20453;-76
2022/12/31 09:47:10;;;;;;;1.70;1.60;;;;;;;11.61;100.00;96377.59;5076831;28;21065;-76
2022/12/31 09:49:51;;;;;;;1.47;1.37;;;;;;;11.72;100.00;96371.53;5055418;28;20451;-76
2022/12/31 09:52:29;;;;;;;1.53;1.30;;;;;;;11.76;100.00;96383.03;5061979;28;20931;-76
2022/12/31 09:55:34;;;;;;;1.23;1.13;;;;;;;11.88;100.00;96379.59;5058812;28;20495;-76
2022/12/31 09:58:42;;;;;;;1.67;1.43;;;;;;;11.92;100.00;96393.75;5059398;28;20523;-76
2022/12/31 10:01:16;;;;;;;1.87;1.30;;;;;;;11.87;100.00;96387.91;5058919;28;20414;-76
2022/12/31 10:03:52;;;;;;;1.50;1.40;;;;;;;11.92;100.00;96395.63;5045767;28;20517;-76
2022/12/31 10:06:43;;;;;;;2.00;1.40;;;;;;;12.00;100.00;96389.44;5067065;28;20419;-76
2022/12/31 10:09:09;;;;;;;3.93;1.57;;;;;;;12.09;100.00;96392.72;5016834;28;20527;-77
2022/12/31 10:11:45;;;;;;;1.27;1.17;;;;;;;12.17;100.00;96391.09;5059773;28;20443;-76
2022/12/31 10:14:36;;;;;;;1.33;1.23;;;;;;;12.33;100.00;96390.03;5058782;28;20476;-76
2022/12/31 10:17:34;;;;;;;1.37;1.20;;;;;;;12.43;100.00;96389.59;5071983;28;20448;-75
2022/12/31 10:20:46;;;;;;;2.60;2.40;;;;;;;12.45;100.00;96385.81;5071995;28;20459;-76
2022/12/31 10:23:19;;;;;;;1.77;1.30;;;;;;;12.50;100.00;96390.88;5058451;28;20480;-76
2022/12/31 10:26:10;;;;;;;1.80;1.60;;;;;;;12.50;100.00;96394.31;5071339;28;20707;-76
2022/12/31 10:28:40;;;;;;;2.03;1.73;;;;;;;12.43;100.00;96400.19;5058526;28;20837;-76
2022/12/31 10:31:37;;;;;;;3.60;2.67;;;;;;;12.46;100.00;96404.03;5071650;28;20510;-71
2022/12/31 10:34:33;;;;;;;2.07;1.97;;;;;;;12.29;100.00;96381.22;5071226;28;20488;-72
2022/12/31 10:37:16;;;;;;;1.30;1.20;;;;;;;12.44;100.00;96393.00;5074327;28;20451;-71
2022/12/31 10:39:59;;;;;;;5.63;1.40;;;;;;;12.33;100.00;96374.13;5080901;28;20777;-71
2022/12/31 10:42:41;;;;;;;1.40;1.10;;;;;;;12.55;100.00;96403.88;5071269;28;20924;-71
2022/12/31 10:45:29;;;;;;;1.33;1.20;;;;;;;12.60;100.00;96401.00;5070685;28;20471;-71
2022/12/31 10:48:27;;;;;;;1.20;1.07;;;;;;;12.66;100.00;96397.78;5072525;28;20416;-71
2022/12/31 10:51:06;;;;;;;1.00;0.90;;;;;;;12.66;100.00;96397.00;5071200;28;20428;-71
2022/12/31 10:54:11;;;;;;;1.40;1.30;;;;;;;12.81;100.00;96393.63;5072309;28;20527;-71
2022/12/31 10:56:59;;;;;;;6.17;3.13;;;;;;;12.93;100.00;96384.84;5057407;28;20838;-71
2022/12/31 10:59:57;;;;;;;2.77;1.27;;;;;;;13.03;100.00;96382.47;5071063;28;20463;-70
2022/12/31 11:02:38;;;;;;;1.43;1.17;;;;;;;13.13;100.00;96367.16;5071212;28;20896;-71
2022/12/31 11:05:30;;;;;;;2.60;1.90;;;;;;;13.20;100.00;96377.97;5071009;28;20451;-71
2022/12/31 11:08:22;;;;;;;1.00;0.90;;;;;;;13.34;100.00;96380.22;5070777;28;20440;-70
2022/12/31 11:11:05;;;;;;;1.37;1.27;;;;;;;13.43;100.00;96383.47;5072100;28;20455;-71
2022/12/31 11:13:43;;;;;;;4.10;1.17;;;;;;;13.48;100.00;96386.63;5071976;28;20443;-71
2022/12/31 11:16:22;;;;;;;0.90;0.80;;;;;;;13.65;100.00;96387.44;5071928;28;20758;-70
2022/12/31 11:19:17;;;;;;;1.80;1.43;;;;;;;13.55;100.00;96376.19;5072152;28;20447;-70
2022/12/31 11:21:46;;;;;;;3.13;2.00;;;;;;;13.70;100.00;96406.53;5071928;28;20528;-71
2022/12/31 11:24:31;;;;;;;2.50;2.30;;;;;;;13.72;100.00;96406.94;5071748;28;20460;-71
2022/12/31 11:27:19;;;;;;;1.90;1.60;;;;;;;13.64;100.00;96388.53;5071843;28;20454;-71
2022/12/31 11:30:22;;;;;;;3.00;1.77;;;;;;;13.88;100.00;96412.25;5071940;28;20914;-71
2022/12/31 11:33:50;;;;;;;2.53;1.33;;;;;;;13.96;100.00;96386.59;5060546;28;20432;-71
2022/12/31 11:36:42;;;;;;;3.97;3.67;;;;;;;14.12;100.00;96416.59;4970743;28;20452;-71
2022/12/31 11:39:27;;;;;;;2.40;2.30;;;;;;;14.13;100.00;96408.25;5050425;28;21036;-71
2022/12/31 11:42:25;;;;;;;1.83;1.73;;;;;;;14.12;100.00;96397.97;5067157;28;20436;-71
2022/12/31 11:45:11;;;;;;;2.07;1.87;;;;;;;14.31;100.00;96407.88;5046688;28;20491;-71
2022/12/31 11:47:47;;;;;;;1.23;0.97;;;;;;;14.36;100.00;96391.66;5053989;28;20933;-71
2022/12/31 11:50:44;;;;;;;3.33;1.60;;;;;;;14.32;100.00;96370.31;5070877;28;20952;-70
2022/12/31 11:53:29;;;;;;;1.63;1.50;;;;;;;14.49;100.00;96407.16;5070550;28;20455;-71
2022/12/31 11:56:02;;;;;;;2.50;1.60;;;;;;;14.42;100.00;96380.41;5071070;28;20486;-71
2022/12/31 11:58:30;;;;;;;1.60;1.50;;;;;;;14.29;100.00;96352.38;5057333;28;20466;-71
2022/12/31 12:01:10;;;;;;;2.50;1.63;;;;;;;14.47;100.00;96396.09;5071408;28;20420;-71
2022/12/31 12:03:42;;;;;;;3.00;2.37;;;;;;;14.54;100.00;96384.81;5053400;28;20487;-71
2022/12/31 12:06:14;;;;;;;3.60;2.67;;;;;;;14.62;100.00;96399.81;5071300;28;20450;-71
2022/12/31 12:08:43;;;;;;;1.67;1.43;;;;;;;14.42;100.00;96360.97;5069975;28;20912;-71
2022/12/31 12:11:19;;;;;;;1.10;1.00;;;;;;;14.56;100.00;96387.91;5071301;28;20471;-71
2022/12/31 12:13:46;;;;;;;1.20;1.10;;;;;;;14.68;100.00;96389.66;5071387;28;20811;-71
2022/12/31 12:16:14;;;;;;;1.10;0.80;;;;;;;14.70;100.00;96395.41;5069783;28;20443;-71